Time;durP1;ratioP1;P1;durP2;ratioP2;P2;SDS_P1;SDS_P2;PMS_P1;PMS_P2;Temp;Humidity;BMP_temperature;BMP_pressure;BME280_temperature;BME280_humidity;BME280_pressure;Samples;Min_cycle;Max_cycle;Signal;HPM_P1;HPM_P2
2023/10/20 00:00:49;;;;;;;8.20;5.47;;;17.10;99.90;;;17.31;69.68;95937.41;4953236;28;109296;-80
2023/10/20 00:03:16;;;;;;;7.83;5.50;;;17.10;99.90;;;17.32;69.69;95938.19;4969606;28;109024;-78
2023/10/20 00:05:45;;;;;;;8.77;6.10;;;17.10;99.90;;;17.30;69.67;95932.25;4963279;28;124079;-80
2023/10/20 00:08:15;;;;;;;8.10;5.57;;;17.10;99.90;;;17.29;69.67;95927.91;4962543;28;123465;-78
2023/10/20 00:10:41;;;;;;;5.97;4.47;;;17.10;99.90;;;17.29;69.85;95922.31;4952050;28;110150;-79
2023/10/20 00:13:09;;;;;;;6.80;4.27;;;17.20;99.90;;;17.29;70.01;95922.31;4967686;28;108833;-79
2023/10/20 00:15:38;;;;;;;7.17;4.57;;;17.10;99.90;;;17.28;70.00;95924.31;4985745;28;124034;-79
2023/10/20 00:18:08;;;;;;;7.30;4.43;;;17.10;99.90;;;17.27;69.95;95927.53;4965150;28;123413;-80
2023/10/20 00:20:35;;;;;;;5.90;4.97;;;17.10;99.90;;;17.25;70.06;95924.38;4950048;28;109452;-80
2023/10/20 00:23:21;;;;;;;6.90;4.80;;;17.00;99.90;;;17.26;70.01;95926.75;4992293;28;108323;-79
2023/10/20 00:25:48;;;;;;;6.67;4.63;;;17.00;99.90;;;17.26;70.01;95931.53;4962062;28;124085;-80
2023/10/20 00:28:14;;;;;;;5.80;3.87;;;17.10;99.90;;;17.25;69.81;95924.38;4954199;28;124064;-80
2023/10/20 00:30:43;;;;;;;5.53;4.23;;;17.00;99.90;;;17.26;70.06;95937.13;4965152;28;108091;-80
2023/10/20 00:33:15;;;;;;;3.97;3.27;;;17.00;99.90;;;17.23;70.12;95925.59;4962839;28;109710;-83
2023/10/20 00:35:42;;;;;;;5.43;3.50;;;17.00;99.90;;;17.25;70.02;95929.94;4963712;28;124629;-80
2023/10/20 00:38:09;;;;;;;6.17;4.30;;;17.10;99.90;;;17.25;69.91;95924.38;4969538;28;123837;-80
2023/10/20 00:40:45;;;;;;;6.77;4.57;;;17.00;99.90;;;17.23;69.93;95917.22;4955366;28;109357;-81
2023/10/20 00:43:11;;;;;;;8.43;5.90;;;17.00;99.90;;;17.24;69.88;95912.44;4961549;28;108956;-78
2023/10/20 00:45:40;;;;;;;7.37;5.37;;;17.00;99.90;;;17.23;70.15;95900.47;4960446;28;123276;-79
2023/10/20 00:48:13;;;;;;;5.20;4.40;;;17.00;99.90;;;17.23;70.00;95886.53;4960452;28;123925;-79
2023/10/20 00:50:40;;;;;;;6.83;4.90;;;17.00;99.90;;;17.22;70.00;95882.19;4981671;28;109207;-80
2023/10/20 00:53:09;;;;;;;7.30;4.80;;;17.00;99.90;;;17.21;70.29;95879.81;4958411;28;108996;-79
2023/10/20 00:55:36;;;;;;;6.20;4.67;;;17.00;99.90;;;17.20;70.21;95884.59;4963550;28;124526;-79
2023/10/20 00:58:03;;;;;;;6.13;4.50;;;17.00;99.90;;;17.20;70.52;95878.25;4940298;28;123011;-78
2023/10/20 01:00:29;;;;;;;7.90;4.30;;;17.00;99.90;;;17.20;70.35;95879.03;4963600;28;110373;-78
2023/10/20 01:02:57;;;;;;;5.50;3.93;;;17.00;99.90;;;17.21;70.20;95868.63;4963212;28;109159;-80
2023/10/20 01:05:26;;;;;;;3.80;2.83;;;17.10;99.90;;;17.19;70.12;95869.09;4953258;28;124644;-79
2023/10/20 01:07:53;;;;;;;5.07;3.47;;;17.10;99.90;;;17.19;69.80;95863.50;4969172;28;123824;-80
2023/10/20 01:10:19;;;;;;;4.70;3.60;;;16.90;99.90;;;17.17;69.75;95854.78;4957362;28;108932;-79
2023/10/20 01:12:46;;;;;;;3.67;3.00;;;16.90;99.90;;;17.15;69.66;95843.25;4958887;28;108693;-79
2023/10/20 01:15:16;;;;;;;9.53;4.57;;;19.00;99.90;;;17.16;69.52;95839.22;4967554;28;124604;-79
2023/10/20 01:17:49;;;;;;;4.47;3.37;;;17.20;99.90;;;17.16;69.44;95844.03;4981143;28;125119;-80
2023/10/20 01:20:18;;;;;;;3.83;3.20;;;16.90;99.90;;;17.16;69.55;95844.03;4968744;28;108946;-79
2023/10/20 01:22:45;;;;;;;3.67;3.13;;;16.90;99.90;;;17.15;69.61;95837.66;4962840;28;109013;-79
2023/10/20 01:25:11;;;;;;;6.63;3.87;;;16.90;99.90;;;17.17;69.63;95834.47;4953592;28;124087;-79
2023/10/20 01:27:43;;;;;;;4.97;4.00;;;16.90;99.90;;;17.18;69.48;95836.81;4975728;28;123467;-79
2023/10/20 01:30:13;;;;;;;5.10;3.77;;;16.90;99.90;;;17.19;69.53;95832.00;4962498;28;108800;-81
2023/10/20 01:32:40;;;;;;;4.60;3.70;;;16.90;99.90;;;17.19;69.59;95832.00;4968847;28;108857;-80
2023/10/20 01:35:07;;;;;;;4.80;3.67;;;16.90;99.90;;;17.18;69.64;95822.84;4968757;28;123105;-81
2023/10/20 01:37:34;;;;;;;8.23;3.40;;;16.90;99.90;;;17.18;69.71;95822.84;4967746;28;124198;-79
2023/10/20 01:40:00;;;;;;;4.27;3.40;;;16.90;99.90;;;17.18;69.72;95806.13;4969158;28;108652;-80
2023/10/20 01:42:27;;;;;;;4.47;3.50;;;16.90;99.90;;;17.18;69.63;95789.38;4957235;28;108953;-80
2023/10/20 01:44:53;;;;;;;4.60;3.70;;;16.90;99.90;;;17.17;69.72;95778.66;4963879;28;124219;-79
2023/10/20 01:47:20;;;;;;;4.27;3.30;;;16.90;99.90;;;17.15;69.79;95776.28;4970993;28;123072;-79
2023/10/20 01:49:49;;;;;;;4.27;3.10;;;17.00;99.90;;;17.17;69.91;95773.88;4971251;28;110339;-79
2023/10/20 01:52:16;;;;;;;3.17;2.87;;;16.90;99.90;;;17.17;70.02;95757.13;4960861;28;109837;-79
2023/10/20 01:54:45;;;;;;;5.67;3.70;;;16.90;99.90;;;17.17;69.82;95750.75;4969440;28;124084;-79
2023/10/20 01:57:11;;;;;;;3.90;3.50;;;16.90;99.90;;;17.17;69.84;95731.22;4970669;28;123954;-78
2023/10/20 01:59:38;;;;;;;4.43;3.50;;;16.90;99.90;;;17.16;70.01;95719.25;4972162;28;108769;-79
2023/10/20 02:02:04;;;;;;;4.30;3.30;;;17.20;99.90;;;17.16;70.00;95704.53;4973946;28;109598;-79
2023/10/20 02:04:31;;;;;;;4.07;3.20;;;16.90;99.90;;;17.14;70.01;95702.19;4972673;28;123592;-78
2023/10/20 02:06:57;;;;;;;5.37;3.47;;;16.90;99.90;;;17.14;70.18;95702.19;4970233;28;123780;-79
2023/10/20 02:09:25;;;;;;;7.90;3.00;;;17.00;99.90;;;17.14;70.10;95702.19;4966473;28;109095;-79
2023/10/20 02:11:56;;;;;;;3.80;3.40;;;16.90;99.90;;;17.14;70.19;95691.03;4971447;28;108260;-78
2023/10/20 02:14:24;;;;;;;4.60;3.30;;;16.90;99.90;;;17.14;70.35;95679.06;4971113;28;124068;-79
2023/10/20 02:16:51;;;;;;;4.80;4.00;;;16.90;99.90;;;17.14;70.21;95670.69;4981719;28;123842;-79
2023/10/20 02:19:18;;;;;;;5.50;4.10;;;17.00;99.90;;;17.13;70.32;95655.97;4971080;28;109069;-79
2023/10/20 02:21:47;;;;;;;5.97;4.00;;;16.90;99.90;;;17.13;70.38;95658.75;4972259;28;109017;-79
2023/10/20 02:24:14;;;;;;;6.33;4.17;;;16.90;99.90;;;17.12;70.29;95654.41;4970633;28;124772;-79
2023/10/20 02:26:44;;;;;;;4.97;4.40;;;16.90;99.90;;;17.11;70.45;95650.03;4970476;28;123948;-79
2023/10/20 02:29:13;;;;;;;7.80;5.17;;;16.90;99.90;;;17.12;70.47;95643.25;4965490;28;109320;-79
2023/10/20 02:31:42;;;;;;;7.20;5.23;;;16.90;99.90;;;17.10;70.47;95630.94;4971082;28;109096;-79
2023/10/20 02:34:09;;;;;;;6.10;4.77;;;16.90;99.90;;;17.08;70.51;95631.38;4951931;28;124651;-79
2023/10/20 02:36:36;;;;;;;6.37;5.20;;;17.40;99.90;;;17.08;70.60;95620.22;4964211;28;123837;-79
2023/10/20 02:39:04;;;;;;;7.50;4.60;;;17.70;99.90;;;17.06;70.58;95619.88;4959084;28;110278;-79
2023/10/20 02:41:33;;;;;;;5.47;4.70;;;16.80;99.90;;;17.06;70.63;95633.03;4954324;28;109468;-79
2023/10/20 02:44:00;;;;;;;5.53;4.07;;;16.80;99.90;;;17.05;70.63;95643.41;4965540;28;123710;-79
2023/10/20 02:46:26;;;;;;;5.53;4.83;;;16.90;99.90;;;17.06;70.72;95644.97;4964573;28;123860;-79
2023/10/20 02:48:53;;;;;;;6.33;4.97;;;16.90;99.90;;;17.07;70.71;95634.59;4975481;28;108295;-79
2023/10/20 02:51:22;;;;;;;6.27;4.50;;;16.80;99.90;;;17.06;70.70;95639.41;4967571;28;108988;-78
2023/10/20 02:53:48;;;;;;;4.77;3.93;;;16.80;99.90;;;17.05;70.64;95632.25;4951263;28;124686;-79
2023/10/20 02:56:20;;;;;;;5.07;4.37;;;16.80;99.90;;;17.04;70.56;95636.25;4950587;28;123827;-79
2023/10/20 02:58:47;;;;;;;5.23;3.70;;;16.80;99.90;;;17.03;70.88;95642.25;4963663;28;109102;-79
2023/10/20 03:01:17;;;;;;;5.17;3.80;;;16.80;99.90;;;17.02;70.70;95649.06;4984155;28;109032;-79
2023/10/20 03:03:46;;;;;;;4.63;3.00;;;16.80;99.90;;;16.98;70.75;95649.16;4970309;28;123084;-78
2023/10/20 03:06:13;;;;;;;3.80;3.00;;;16.80;99.90;;;16.97;70.99;95653.13;4968599;28;123222;-79
2023/10/20 03:08:42;;;;;;;3.87;3.33;;;16.80;99.90;;;16.95;70.93;95655.56;4957527;28;109464;-83
2023/10/20 03:11:10;;;;;;;4.90;3.17;;;16.70;99.90;;;16.93;71.06;95641.28;4958750;28;109490;-79
2023/10/20 03:13:37;;;;;;;6.13;3.20;;;16.70;99.90;;;16.91;70.99;95638.16;4971314;28;124495;-80
2023/10/20 03:16:05;;;;;;;4.70;3.90;;;16.70;99.90;;;16.89;71.05;95632.97;4969189;28;123796;-81
2023/10/20 03:18:32;;;;;;;4.10;3.03;;;16.70;99.90;;;16.88;71.01;95617.47;4968621;28;108291;-82
2023/10/20 03:21:03;;;;;;;2.80;2.40;;;16.70;99.90;;;16.89;70.99;95612.69;4972873;28;108957;-80
2023/10/20 03:23:31;;;;;;;4.40;3.30;;;16.70;99.90;;;16.88;71.07;95605.56;4967677;28;124104;-81
2023/10/20 03:25:58;;;;;;;3.90;2.80;;;16.70;99.90;;;16.87;71.25;95598.38;4970775;28;124576;-79
2023/10/20 03:28:28;;;;;;;5.87;3.50;;;16.60;99.90;;;16.84;71.15;95593.66;4967709;28;110324;-81
2023/10/20 03:30:54;;;;;;;4.57;3.53;;;16.60;99.90;;;16.82;71.13;95590.53;4958625;28;110319;-80
2023/10/20 03:33:21;;;;;;;5.10;3.20;;;16.70;99.90;;;16.83;71.40;95580.97;4969649;28;124077;-82
2023/10/20 03:35:58;;;;;;;7.03;3.70;;;16.60;99.90;;;16.83;71.31;95570.59;4964843;28;123688;-81
2023/10/20 03:38:27;;;;;;;4.60;3.20;;;16.60;99.90;;;16.84;71.41;95554.63;4951935;28;108996;-81
2023/10/20 03:40:56;;;;;;;4.13;2.90;;;16.70;99.90;;;16.86;71.45;95543.84;4985281;28;108652;-83
2023/10/20 03:43:24;;;;;;;4.87;3.13;;;16.60;99.90;;;16.86;71.37;95541.06;4953517;28;123373;-84
2023/10/20 03:45:56;;;;;;;4.00;3.17;;;16.60;99.90;;;16.86;71.33;95536.25;4970867;28;123844;-84
2023/10/20 03:48:33;;;;;;;9.53;3.23;;;16.60;99.90;;;16.86;71.52;95543.84;4965246;28;109936;-83
2023/10/20 03:51:00;;;;;;;4.43;3.40;;;18.00;99.90;;;16.86;71.55;95521.53;4956304;28;108972;-84
2023/10/20 03:53:39;;;;;;;5.40;3.30;;;16.60;99.90;;;16.87;71.40;95509.16;4969072;28;124097;-80
2023/10/20 03:56:09;;;;;;;4.70;3.50;;;16.60;99.90;;;16.87;71.65;95511.94;4952610;28;122799;-82
2023/10/20 03:58:36;;;;;;;4.00;2.90;;;16.90;99.90;;;16.87;71.76;95503.56;4961955;28;108956;-79
2023/10/20 04:01:06;;;;;;;5.67;3.50;;;16.60;99.90;;;16.87;71.57;95504.38;4970820;28;108985;-78
2023/10/20 04:03:33;;;;;;;11.50;3.70;;;16.60;99.90;;;16.86;71.54;95502.00;4964844;28;124023;-79
2023/10/20 04:06:02;;;;;;;5.40;3.57;;;17.20;99.90;;;16.85;71.61;95501.25;4958497;28;124480;-82
2023/10/20 04:08:31;;;;;;;7.07;3.60;;;16.60;99.90;;;16.85;71.62;95490.09;4968953;28;108720;-81
2023/10/20 04:10:58;;;;;;;4.70;3.97;;;16.70;99.90;;;16.85;71.56;95476.16;4952895;28;108108;-80
2023/10/20 04:13:31;;;;;;;4.27;3.67;;;14.00;99.90;;;16.86;71.40;95465.78;4956873;28;124061;-81
2023/10/20 04:16:00;;;;;;;8.73;5.70;;;16.60;99.90;;;16.84;71.63;95448.69;4966230;28;123827;-82
2023/10/20 04:18:32;;;;;;;5.60;4.80;;;16.60;99.90;;;16.82;71.71;95446.34;4951563;28;110080;-79
2023/10/20 04:20:58;;;;;;;6.10;4.40;;;16.60;99.90;;;16.76;71.81;95439.69;4964552;28;108960;-82
2023/10/20 04:23:28;;;;;;;4.43;3.87;;;16.60;99.90;;;16.69;72.08;95431.50;4968171;28;123822;-80
2023/10/20 04:25:55;;;;;;;6.07;4.20;;;16.70;99.90;;;16.66;72.30;95422.00;4965613;28;123900;-80
2023/10/20 04:29:07;;;;;;;7.13;4.27;;;16.50;99.90;;;16.66;72.41;95407.28;4956288;28;109314;-78
2023/10/20 05:05:39;;;;;;;3.60;3.10;;;16.30;99.90;;;16.52;71.88;95316.44;4974543;28;124706;-79
2023/10/20 05:10:35;;;;;;;5.10;3.13;;;16.30;99.90;;;16.54;71.85;95280.56;4967483;28;112782;-79
2023/10/20 05:13:01;;;;;;;7.90;3.90;;;16.30;99.90;;;16.52;71.89;95283.81;4964181;28;110408;-80
2023/10/20 05:15:31;;;;;;;3.80;3.13;;;16.30;99.90;;;16.49;71.81;95270.72;4955560;28;124577;-78
2023/10/20 05:17:57;;;;;;;5.53;3.40;;;16.60;99.90;;;16.49;71.59;95265.16;4991816;28;123773;-80
2023/10/20 05:20:24;;;;;;;5.13;2.93;;;16.30;99.90;;;16.49;71.66;95259.56;5004832;28;108688;-78
2023/10/20 05:22:53;;;;;;;3.80;2.50;;;16.30;99.90;;;16.50;71.77;95250.00;4963821;28;108945;-78
2023/10/20 05:25:20;;;;;;;6.20;3.10;;;16.30;99.90;;;16.52;71.66;95241.19;4964076;28;124080;-81
2023/10/20 05:27:46;;;;;;;4.30;2.90;;;16.30;99.90;;;16.54;71.49;95241.53;4960798;28;123959;-79
2023/10/20 05:30:13;;;;;;;6.00;3.20;;;16.30;99.90;;;16.54;71.50;95233.97;4959107;28;108788;-79
2023/10/20 05:32:39;;;;;;;4.97;3.23;;;16.30;99.90;;;16.55;71.33;95229.19;4957997;28;108932;-83
2023/10/20 05:35:08;;;;;;;5.70;3.17;;;16.50;99.90;;;16.56;71.31;95227.97;4964354;28;124134;-86
2023/10/20 05:37:35;;;;;;;3.17;2.70;;;16.30;99.90;;;16.57;71.29;95221.16;4962433;28;123297;-80
2023/10/20 05:40:07;;;;;;;4.00;2.97;;;16.30;99.90;;;16.55;71.13;95220.84;4961470;28;109176;-81
2023/10/20 05:42:34;;;;;;;5.83;3.70;;;16.30;99.90;;;16.53;70.99;95206.56;4982642;28;107899;-79
2023/10/20 05:45:09;;;;;;;5.37;3.53;;;16.30;99.90;;;16.48;70.84;95188.34;4960387;28;124594;-79
2023/10/20 05:47:37;;;;;;;7.83;3.60;;;16.40;99.90;;;16.47;71.08;95158.13;4962647;28;123644;-82
2023/10/20 05:50:06;;;;;;;8.67;5.07;;;16.30;99.90;;;16.47;71.10;95153.38;4949894;28;114291;-84
2023/10/20 05:52:35;;;;;;;12.57;5.90;;;16.30;99.90;;;16.46;71.01;95162.16;4963323;28;113892;-79
2023/10/20 05:55:03;;;;;;;10.83;5.43;;;16.20;99.90;;;16.46;71.27;95167.72;4958301;28;124635;-81
2023/10/20 05:57:30;;;;;;;14.33;7.10;;;16.20;99.90;;;16.45;71.19;95160.59;4983886;28;124280;-81
2023/10/20 05:59:59;;;;;;;10.93;6.50;;;16.20;99.90;;;16.46;71.36;95162.16;4952786;28;115083;-78
2023/10/20 06:02:27;;;;;;;8.87;5.40;;;16.60;99.90;;;16.47;71.07;95138.63;4960222;28;114875;-79
2023/10/20 06:04:54;;;;;;;6.67;4.43;;;16.20;99.90;;;16.49;71.17;95127.84;4951444;28;123186;-79
2023/10/20 06:07:20;;;;;;;8.70;4.47;;;16.30;99.90;;;16.50;71.20;95118.25;4956045;28;123980;-81
2023/10/20 06:09:49;;;;;;;7.10;4.33;;;16.30;99.90;;;16.51;71.21;95117.81;4953577;28;114054;-80
2023/10/20 06:12:18;;;;;;;8.40;4.50;;;16.30;99.90;;;16.51;71.05;95119.81;4948150;28;114064;-79
2023/10/20 06:14:46;;;;;;;6.53;3.20;;;16.30;99.90;;;16.52;70.87;95116.59;4965288;28;124231;-80
2023/10/20 06:17:17;;;;;;;4.10;3.50;;;16.40;99.90;;;16.51;70.88;95109.44;4950382;28;123929;-79
2023/10/20 06:19:48;;;;;;;8.13;4.57;;;16.30;99.90;;;16.51;70.91;95097.53;4949685;28;114134;-80
2023/10/20 06:22:17;;;;;;;7.10;4.80;;;16.30;99.90;;;16.51;70.95;95087.16;4963739;28;114071;-78
2023/10/20 06:24:43;;;;;;;8.47;4.83;;;16.30;99.90;;;16.51;70.79;95086.38;4947498;28;124295;-81
2023/10/20 06:27:11;;;;;;;6.63;4.50;;;16.30;99.90;;;16.50;70.09;95063.31;4968383;28;123728;-79
2023/10/20 06:29:48;;;;;;;8.13;5.20;;;16.30;99.90;;;16.47;69.96;95080.91;4948555;28;114233;-83
2023/10/20 06:32:25;;;;;;;6.23;4.70;;;16.20;99.90;;;16.46;69.97;95084.13;4956195;28;114090;-81
2023/10/20 06:34:57;;;;;;;6.53;4.30;;;17.00;99.90;;;16.48;69.91;95078.91;4947990;28;124073;-87
2023/10/20 06:37:29;;;;;;;5.53;4.47;;;16.20;99.90;;;16.48;69.74;95048.25;4950338;28;123798;-84
2023/10/20 06:39:56;;;;;;;9.73;4.93;;;16.20;99.90;;;16.50;69.45;95045.81;4967559;28;113482;-83
2023/10/20 06:42:24;;;;;;;7.10;4.63;;;16.20;99.90;;;16.52;69.40;95049.72;4955889;28;114029;-82
2023/10/20 06:44:51;;;;;;;6.17;4.93;;;16.50;99.90;;;16.54;69.17;95032.53;4966370;28;123667;-83
2023/10/20 06:47:20;;;;;;;8.57;5.07;;;16.20;99.90;;;16.55;68.82;95020.19;4942010;28;122958;-82
2023/10/20 06:49:46;;;;;;;6.73;4.63;;;16.30;99.90;;;16.57;68.82;95023.28;4948908;28;115270;-83
2023/10/20 06:52:17;;;;;;;8.90;5.67;;;16.30;99.90;;;16.58;68.81;95019.28;4962125;28;115301;-86
2023/10/20 06:54:45;;;;;;;6.93;5.17;;;16.30;99.90;;;16.58;68.32;95022.09;4953994;28;124444;-82
2023/10/20 06:57:14;;;;;;;7.40;5.60;;;16.30;99.90;;;16.54;67.90;95018.59;4959029;28;123239;-78
2023/10/20 06:59:40;;;;;;;10.60;6.60;;;16.30;99.90;;;16.52;67.94;95005.13;4988925;28;113488;-85
2023/10/20 07:02:07;;;;;;;6.60;5.40;;;16.30;99.90;;;16.53;67.94;95000.34;4946169;28;113538;-86
2023/10/20 07:04:33;;;;;;;8.23;5.30;;;16.30;99.90;;;16.54;67.74;95013.81;4955793;28;124142;-85
2023/10/20 07:07:00;;;;;;;8.27;5.80;;;16.30;99.90;;;16.54;67.47;95007.47;4950688;28;123943;-84
2023/10/20 07:09:27;;;;;;;9.13;5.73;;;16.40;99.90;;;16.55;67.75;95003.47;4956407;28;114416;-84
2023/10/20 07:11:53;;;;;;;7.40;5.60;;;16.30;99.90;;;16.56;67.75;94991.88;4948884;28;113865;-83
2023/10/20 07:14:20;;;;;;;8.37;6.23;;;16.30;99.90;;;16.58;67.71;94985.84;4959536;28;124102;-86
2023/10/20 07:16:46;;;;;;;11.50;6.47;;;16.30;99.90;;;16.60;67.67;94974.25;4952820;28;123883;-84
2023/10/20 07:19:13;;;;;;;9.00;6.00;;;16.30;99.90;;;16.60;67.43;94966.66;4951903;28;114336;-84
2023/10/20 07:21:42;;;;;;;8.00;6.10;;;16.50;99.90;;;16.63;67.60;94976.13;4954891;28;112995;-84
2023/10/20 07:24:08;;;;;;;6.90;5.10;;;16.40;99.90;;;16.64;67.44;94972.91;4970011;28;123978;-85
2023/10/20 07:26:35;;;;;;;7.37;5.47;;;16.40;99.90;;;16.65;67.59;94988.41;4979964;28;124162;-84
2023/10/20 07:29:02;;;;;;;7.83;5.30;;;16.40;99.90;;;16.67;67.64;94985.19;4952589;28;114680;-81
2023/10/20 07:31:28;;;;;;;8.47;5.77;;;16.40;99.90;;;16.66;67.59;94987.19;4948683;28;113920;-84
2023/10/20 07:33:56;;;;;;;8.00;5.00;;;16.40;99.90;;;16.67;67.48;94982.41;4947885;28;124034;-84
2023/10/20 07:36:22;;;;;;;6.20;5.23;;;16.40;99.90;;;16.69;67.45;94999.47;4958118;28;122766;-84
2023/10/20 07:38:49;;;;;;;7.87;5.70;;;16.40;99.90;;;16.69;67.60;94991.88;4994399;28;114522;-83
2023/10/20 07:41:17;;;;;;;7.97;5.07;;;16.40;99.90;;;16.69;67.64;94991.88;4956882;28;114908;-83
2023/10/20 07:43:43;;;;;;;7.93;5.23;;;16.40;99.90;;;16.71;67.57;94980.25;4956645;28;123955;-85
2023/10/20 07:46:18;;;;;;;7.03;4.93;;;16.40;99.90;;;16.72;67.60;94963.09;4947667;28;123688;-85
2023/10/20 07:48:45;;;;;;;5.93;4.57;;;16.50;99.90;;;16.74;67.68;94971.03;4984997;28;115213;-85
2023/10/20 07:51:11;;;;;;;6.50;4.80;;;16.50;99.90;;;16.74;67.81;94977.38;4947639;28;113820;-83
2023/10/20 07:53:40;;;;;;;7.00;5.53;;;16.50;99.90;;;16.76;67.76;94974.94;4969556;28;124531;-87
2023/10/20 07:56:08;;;;;;;7.03;5.43;;;16.50;99.90;;;16.76;68.00;94983.28;4989978;28;123325;-85
2023/10/20 07:58:35;;;;;;;9.10;5.73;;;16.50;99.90;;;16.77;67.83;94970.94;4948258;28;114234;-83
2023/10/20 08:01:05;;;;;;;9.33;5.70;;;16.50;99.90;;;16.81;67.89;94975.63;4960880;28;114003;-85
2023/10/20 08:03:32;;;;;;;9.50;5.43;;;16.50;99.90;;;16.84;67.81;94969.13;4965081;28;124032;-86
2023/10/20 08:06:05;;;;;;;9.80;6.30;;;16.50;99.90;;;16.86;67.90;94963.91;4955143;28;124509;-84
2023/10/20 08:08:32;;;;;;;7.07;5.37;;;16.50;99.90;;;16.87;67.85;94969.03;4951086;28;114326;-87
2023/10/20 08:11:03;;;;;;;7.13;5.20;;;16.60;99.90;;;16.90;67.70;94972.91;4970118;28;113949;-87
2023/10/20 08:13:31;;;;;;;7.53;5.17;;;16.60;99.90;;;16.93;68.02;94975.59;4947204;28;123816;-86
2023/10/20 08:16:03;;;;;;;9.17;6.43;;;16.60;99.90;;;16.96;67.57;94982.28;4955070;28;123710;-84
2023/10/20 08:18:33;;;;;;;8.50;5.27;;;16.60;99.90;;;16.97;67.91;94983.84;4946594;28;114237;-85
2023/10/20 08:21:11;;;;;;;7.83;5.13;;;16.60;99.90;;;16.98;67.75;94988.97;4955435;28;114553;-85
2023/10/20 08:23:38;;;;;;;7.03;5.00;;;16.70;99.90;;;16.99;67.97;94998.13;4953019;28;124565;-85
2023/10/20 08:26:07;;;;;;;6.50;4.60;;;16.70;99.90;;;16.99;67.82;94996.13;4950763;28;123804;-85
2023/10/20 08:28:34;;;;;;;7.90;5.30;;;16.80;99.90;;;17.00;67.84;95005.25;4951929;28;114725;-82
2023/10/20 08:31:09;;;;;;;10.93;5.57;;;16.70;99.90;;;17.03;67.60;95004.34;4966531;28;114210;-83
2023/10/20 08:33:39;;;;;;;8.77;6.77;;;16.70;99.90;;;17.06;67.46;95017.44;4966996;28;124801;-86
2023/10/20 08:36:15;;;;;;;7.73;5.20;;;16.70;99.90;;;17.08;67.18;95026.09;4966648;28;123266;-84
2023/10/20 08:38:50;;;;;;;7.77;5.23;;;16.80;99.90;;;17.12;66.86;95034.38;4979966;28;113523;-86
2023/10/20 08:41:21;;;;;;;7.03;5.70;;;16.80;99.90;;;17.11;66.87;95039.16;4951891;28;114546;-85
2023/10/20 08:43:49;;;;;;;8.93;5.87;;;16.80;99.90;;;17.14;66.52;95049.44;4961773;28;124337;-84
2023/10/20 08:46:17;;;;;;;8.93;6.10;;;16.80;99.90;;;17.17;66.41;95053.34;4996505;28;123806;-83
2023/10/20 08:48:47;;;;;;;8.03;5.50;;;16.80;99.90;;;17.20;66.25;95060.81;4948176;28;114703;-84
2023/10/20 08:51:16;;;;;;;11.23;5.17;;;16.90;99.90;;;17.26;65.99;95108.44;4963492;28;114211;-83
2023/10/20 08:53:44;;;;;;;8.77;6.10;;;16.90;99.90;;;17.27;65.43;95119.16;4946982;28;123933;-85
2023/10/20 08:56:12;;;;;;;10.47;6.50;;;16.90;99.90;;;17.29;65.46;95127.09;4978281;28;124284;-86
2023/10/20 08:58:38;;;;;;;8.30;5.70;;;17.10;99.90;;;17.33;65.36;95145.28;4947642;28;113326;-84
2023/10/20 09:01:05;;;;;;;9.40;6.30;;;16.90;99.90;;;17.36;65.21;95163.16;4949678;28;113381;-84
2023/10/20 09:03:48;;;;;;;8.20;6.60;;;17.00;99.90;;;17.38;64.92;95172.63;4963240;28;124546;-82
2023/10/20 09:06:17;;;;;;;7.53;5.90;;;17.00;99.90;;;17.39;64.74;95174.19;4954467;28;123579;-81
2023/10/20 09:08:49;;;;;;;13.53;6.40;;;17.00;99.90;;;17.41;64.34;95166.16;4954221;28;114743;-83
2023/10/20 09:11:18;;;;;;;9.90;6.33;;;17.00;99.90;;;17.45;64.52;95174.41;4967662;28;114597;-82
2023/10/20 09:13:47;;;;;;;10.30;7.17;;;17.10;99.90;;;17.49;64.36;95180.66;4967738;28;123280;-82
2023/10/20 09:16:15;;;;;;;7.27;5.90;;;17.10;99.90;;;17.51;64.24;95155.88;4978197;28;124427;-83
2023/10/20 09:18:50;;;;;;;10.20;6.50;;;17.20;99.90;;;17.54;64.28;95165.34;4965270;28;114992;-82
2023/10/20 09:21:24;;;;;;;7.40;5.77;;;17.20;99.90;;;17.58;64.46;95180.75;4955502;28;115382;-83
2023/10/20 09:24:04;;;;;;;7.93;5.43;;;17.20;99.90;;;17.62;64.38;95158.31;4947068;28;125103;-85
2023/10/20 09:26:34;;;;;;;8.33;5.63;;;17.30;99.90;;;17.66;64.42;95145.81;4962422;28;122918;-83
2023/10/20 09:29:01;;;;;;;7.57;5.63;;;17.30;99.90;;;17.71;64.33;95166.03;4950487;28;114829;-82
2023/10/20 09:31:35;;;;;;;7.53;5.13;;;17.40;99.90;;;17.75;63.90;95169.47;4981305;28;114522;-82
2023/10/20 09:34:04;;;;;;;7.50;5.67;;;17.40;99.90;;;17.77;63.86;95161.44;4951789;28;123203;-83
2023/10/20 09:36:33;;;;;;;8.20;6.20;;;17.40;99.90;;;17.80;63.88;95166.91;4962443;28;124105;-84
2023/10/20 09:39:00;;;;;;;7.10;5.23;;;17.50;99.90;;;17.82;63.71;95164.47;4964705;28;113850;-82
2023/10/20 09:41:28;;;;;;;8.80;5.57;;;17.50;99.90;;;17.86;63.63;95173.50;4956348;28;114014;-84
2023/10/20 09:44:06;;;;;;;9.20;6.13;;;17.50;99.90;;;17.91;63.35;95177.72;4960581;28;124223;-85
2023/10/20 09:46:52;;;;;;;8.57;5.17;;;17.60;99.80;;;17.95;63.52;95189.59;4982332;28;124703;-83
2023/10/20 09:49:25;;;;;;;6.93;5.20;;;17.60;99.80;;;18.00;63.34;95199.38;4975486;28;114536;-82
2023/10/20 09:51:55;;;;;;;8.00;5.27;;;17.70;99.80;;;18.05;63.32;95210.00;4955921;28;113878;-85
2023/10/20 09:54:42;;;;;;;10.30;5.60;;;17.70;99.80;;;18.07;63.31;95202.72;4951332;28;123122;-84
2023/10/20 09:57:12;;;;;;;9.90;5.37;;;17.70;99.70;;;18.13;63.25;95213.34;4958242;28;123824;-85
2023/10/20 09:59:39;;;;;;;8.23;5.40;;;17.70;99.70;;;18.14;63.48;95206.53;4951975;28;113705;-83
2023/10/20 10:02:07;;;;;;;6.97;4.43;;;17.80;99.70;;;18.20;62.98;95227.06;4956594;28;114254;-83
2023/10/20 10:04:37;;;;;;;6.30;4.97;;;17.80;99.70;;;18.24;63.25;95230.53;4969380;28;123943;-84
2023/10/20 10:07:04;;;;;;;7.70;5.13;;;17.90;99.80;;;18.28;63.30;95236.78;4964990;28;124105;-82
2023/10/20 10:09:38;;;;;;;5.07;4.00;;;17.90;99.70;;;18.32;63.07;95240.22;4965246;28;115228;-84
2023/10/20 10:12:14;;;;;;;6.43;4.30;;;18.00;99.70;;;18.36;63.06;95248.50;4964497;28;114664;-85
2023/10/20 10:14:40;;;;;;;6.20;4.90;;;18.00;99.70;;;18.38;63.02;95254.44;4966421;28;124574;-82
2023/10/20 10:17:10;;;;;;;5.33;4.17;;;18.00;99.60;;;18.41;62.77;95245.13;4962217;28;124343;-80
2023/10/20 10:19:50;;;;;;;5.00;4.03;;;18.10;99.60;;;18.44;63.05;95264.56;4939923;28;113916;-83
2023/10/20 10:22:19;;;;;;;5.50;3.90;;;18.10;99.60;;;18.47;63.07;95255.28;4957665;28;114131;-84
2023/10/20 10:24:54;;;;;;;7.50;4.30;;;18.10;99.60;;;18.53;62.99;95273.03;4953766;28;123440;-82
2023/10/20 10:27:28;;;;;;;6.40;4.13;;;18.20;99.60;;;18.58;62.81;95263.31;4986927;28;123833;-85
2023/10/20 10:30:00;;;;;;;4.20;3.60;;;18.30;99.90;;;18.65;62.92;95279.84;4955552;28;114523;-84
2023/10/20 10:32:31;;;;;;;7.00;4.17;;;18.30;99.70;;;18.70;63.08;95281.28;4964416;28;114295;-84
2023/10/20 10:35:01;;;;;;;4.93;3.20;;;18.30;99.70;;;18.76;63.10;95276.72;4990515;28;124263;-82
2023/10/20 10:37:33;;;;;;;7.60;4.90;;;18.40;99.70;;;18.81;62.77;95272.56;4995640;28;123644;-83
2023/10/20 10:40:08;;;;;;;6.33;4.77;;;18.40;99.70;;;18.85;62.34;95273.19;4965138;28;114520;-83
2023/10/20 10:42:38;;;;;;;3.90;3.30;;;18.50;99.70;;;18.89;62.68;95282.25;4960035;28;114438;-81
2023/10/20 10:45:34;;;;;;;4.20;3.40;;;18.50;99.70;;;18.91;62.57;95291.75;4951106;28;124036;-81
2023/10/20 10:48:10;;;;;;;4.50;3.10;;;18.60;99.60;;;18.93;62.86;95283.69;4954309;28;125268;-82
2023/10/20 10:50:43;;;;;;;4.67;3.10;;;18.60;99.70;;;18.97;62.57;95295.53;4963957;28;114220;-82
2023/10/20 10:53:11;;;;;;;6.90;4.13;;;18.60;99.60;;;19.02;62.64;95302.56;4956656;28;115044;-84
2023/10/20 10:55:40;;;;;;;5.67;3.13;;;18.60;99.60;;;19.06;62.33;95291.25;4983284;28;124063;-84
2023/10/20 10:58:10;;;;;;;3.03;2.43;;;17.90;99.30;;;19.08;62.89;95289.56;4968663;28;124227;-83